sensor_id;sensor_type;location;lat;lon;timestamp;pressure;altitude;pressure_sealevel;temperature;humidity
19096;BME280;9680;52.520;13.332;2022-12-18T00:02:26;103024.91;;;-3.74;79.19
19096;BME280;9680;52.520;13.332;2022-12-18T00:04:53;103028.97;;;-3.78;78.91
19096;BME280;9680;52.520;13.332;2022-12-18T00:07:20;103034.63;;;-3.97;78.58
19096;BME280;9680;52.520;13.332;2022-12-18T00:09:47;103033.31;;;-4.05;78.99
19096;BME280;9680;52.520;13.332;2022-12-18T00:12:14;103033.22;;;-4.07;78.97
19096;BME280;9680;52.520;13.332;2022-12-18T00:14:45;103037.25;;;-4.11;79.07
19096;BME280;9680;52.520;13.332;2022-12-18T00:17:12;103042.16;;;-4.14;79.01
19096;BME280;9680;52.520;13.332;2022-12-18T00:19:39;103041.19;;;-4.16;79.49
19096;BME280;9680;52.520;13.332;2022-12-18T00:22:05;103024.41;;;-4.12;79.29
19096;BME280;9680;52.520;13.332;2022-12-18T00:24:32;103030.59;;;-4.08;79.34
19096;BME280;9680;52.520;13.332;2022-12-18T00:26:59;103021.38;;;-4.06;79.30
19096;BME280;9680;52.520;13.332;2022-12-18T00:29:26;103028.03;;;-4.08;79.11
19096;BME280;9680;52.520;13.332;2022-12-18T00:31:54;103036.34;;;-4.11;79.37
19096;BME280;9680;52.520;13.332;2022-12-18T00:34:21;103037.50;;;-4.06;79.44
19096;BME280;9680;52.520;13.332;2022-12-18T00:36:48;103032.69;;;-4.01;79.32
19096;BME280;9680;52.520;13.332;2022-12-18T00:39:15;103023.91;;;-4.06;78.99
19096;BME280;9680;52.520;13.332;2022-12-18T00:41:43;103016.16;;;-4.08;78.93
19096;BME280;9680;52.520;13.332;2022-12-18T00:44:28;103031.44;;;-4.08;78.97
19096;BME280;9680;52.520;13.332;2022-12-18T00:46:56;103031.88;;;-4.15;78.68
19096;BME280;9680;52.520;13.332;2022-12-18T00:49:23;103028.78;;;-4.25;78.61
19096;BME280;9680;52.520;13.332;2022-12-18T00:51:50;103021.69;;;-4.30;78.81
19096;BME280;9680;52.520;13.332;2022-12-18T00:54:17;103020.88;;;-4.29;79.28
19096;BME280;9680;52.520;13.332;2022-12-18T00:56:44;103026.16;;;-4.26;79.14
19096;BME280;9680;52.520;13.332;2022-12-18T00:59:11;103016.16;;;-4.23;79.39
19096;BME280;9680;52.520;13.332;2022-12-18T01:01:38;103022.13;;;-4.22;79.33
19096;BME280;9680;52.520;13.332;2022-12-18T01:04:06;103023.63;;;-4.26;79.31
19096;BME280;9680;52.520;13.332;2022-12-18T01:06:35;103030.66;;;-4.22;79.33
19096;BME280;9680;52.520;13.332;2022-12-18T01:09:02;103033.97;;;-4.23;79.35
19096;BME280;9680;52.520;13.332;2022-12-18T01:11:29;103035.44;;;-4.27;79.30
19096;BME280;9680;52.520;13.332;2022-12-18T01:13:59;103044.94;;;-4.24;79.21
19096;BME280;9680;52.520;13.332;2022-12-18T01:16:26;103041.13;;;-4.31;79.04
19096;BME280;9680;52.520;13.332;2022-12-18T01:18:54;103052.59;;;-4.38;78.99
19096;BME280;9680;52.520;13.332;2022-12-18T01:21:23;103050.84;;;-4.39;79.05
19096;BME280;9680;52.520;13.332;2022-12-18T01:23:51;103056.66;;;-4.41;79.04
19096;BME280;9680;52.520;13.332;2022-12-18T01:26:18;103059.88;;;-4.44;78.99
19096;BME280;9680;52.520;13.332;2022-12-18T01:28:45;103063.50;;;-4.40;79.11
19096;BME280;9680;52.520;13.332;2022-12-18T01:31:14;103061.91;;;-4.38;79.31
19096;BME280;9680;52.520;13.332;2022-12-18T01:33:42;103059.44;;;-4.36;79.34
19096;BME280;9680;52.520;13.332;2022-12-18T01:36:15;103062.41;;;-4.30;79.36
19096;BME280;9680;52.520;13.332;2022-12-18T01:38:43;103059.06;;;-4.29;79.26
19096;BME280;9680;52.520;13.332;2022-12-18T01:41:11;103065.69;;;-4.31;78.80
19096;BME280;9680;52.520;13.332;2022-12-18T01:43:50;103065.44;;;-4.36;78.83
19096;BME280;9680;52.520;13.332;2022-12-18T01:46:19;103067.88;;;-4.38;79.02
19096;BME280;9680;52.520;13.332;2022-12-18T01:48:48;103071.13;;;-4.40;78.88
19096;BME280;9680;52.520;13.332;2022-12-18T01:51:16;103073.75;;;-4.39;78.93
19096;BME280;9680;52.520;13.332;2022-12-18T01:53:46;103066.22;;;-4.37;79.17
19096;BME280;9680;52.520;13.332;2022-12-18T01:56:14;103070.78;;;-4.31;79.03
19096;BME280;9680;52.520;13.332;2022-12-18T01:58:52;103072.66;;;-4.29;79.03
19096;BME280;9680;52.520;13.332;2022-12-18T02:01:22;103072.84;;;-4.26;78.98
19096;BME280;9680;52.520;13.332;2022-12-18T02:03:50;103067.56;;;-4.29;78.87
19096;BME280;9680;52.520;13.332;2022-12-18T02:06:21;103070.78;;;-4.31;78.77
19096;BME280;9680;52.520;13.332;2022-12-18T02:09:01;103068.78;;;-4.37;78.95
19096;BME280;9680;52.520;13.332;2022-12-18T02:11:39;103071.41;;;-4.35;78.97
19096;BME280;9680;52.520;13.332;2022-12-18T02:14:17;103065.63;;;-4.33;79.14
19096;BME280;9680;52.520;13.332;2022-12-18T02:16:50;103061.03;;;-4.39;78.74
19096;BME280;9680;52.520;13.332;2022-12-18T02:19:34;103073.69;;;-4.40;78.92
19096;BME280;9680;52.520;13.332;2022-12-18T02:22:16;103077.97;;;-4.39;79.08
19096;BME280;9680;52.520;13.332;2022-12-18T02:24:56;103068.47;;;-4.42;79.05
19096;BME280;9680;52.520;13.332;2022-12-18T02:27:29;103073.38;;;-4.45;79.16
19096;BME280;9680;52.520;13.332;2022-12-18T02:30:00;103071.91;;;-4.41;79.30
19096;BME280;9680;52.520;13.332;2022-12-18T02:32:31;103073.56;;;-4.42;79.19
19096;BME280;9680;52.520;13.332;2022-12-18T02:34:59;103084.03;;;-4.37;79.17
19096;BME280;9680;52.520;13.332;2022-12-18T02:37:30;103082.34;;;-4.36;79.19
19096;BME280;9680;52.520;13.332;2022-12-18T02:40:01;103092.47;;;-4.38;78.92
19096;BME280;9680;52.520;13.332;2022-12-18T02:42:32;103097.44;;;-4.40;78.87
19096;BME280;9680;52.520;13.332;2022-12-18T02:45:00;103092.34;;;-4.40;79.12
19096;BME280;9680;52.520;13.332;2022-12-18T02:47:29;103090.00;;;-4.36;78.94
19096;BME280;9680;52.520;13.332;2022-12-18T02:50:02;103088.53;;;-4.33;79.11
19096;BME280;9680;52.520;13.332;2022-12-18T02:52:40;103091.25;;;-4.30;79.10
19096;BME280;9680;52.520;13.332;2022-12-18T02:55:23;103095.69;;;-4.27;78.79
19096;BME280;9680;52.520;13.332;2022-12-18T02:58:04;103097.81;;;-4.33;78.47
19096;BME280;9680;52.520;13.332;2022-12-18T03:00:40;103091.56;;;-4.39;78.60
19096;BME280;9680;52.520;13.332;2022-12-18T03:03:13;103085.63;;;-4.39;78.88
19096;BME280;9680;52.520;13.332;2022-12-18T03:05:44;103088.22;;;-4.38;78.80
19096;BME280;9680;52.520;13.332;2022-12-18T03:08:17;103089.81;;;-4.40;78.79
19096;BME280;9680;52.520;13.332;2022-12-18T03:10:50;103092.16;;;-4.43;78.79
19096;BME280;9680;52.520;13.332;2022-12-18T03:13:24;103094.72;;;-4.43;78.77
19096;BME280;9680;52.520;13.332;2022-12-18T03:15:55;103099.78;;;-4.43;78.79
19096;BME280;9680;52.520;13.332;2022-12-18T03:18:33;103099.78;;;-4.43;78.78
19096;BME280;9680;52.520;13.332;2022-12-18T03:21:04;103091.19;;;-4.45;78.73
19096;BME280;9680;52.520;13.332;2022-12-18T03:23:38;103088.75;;;-4.43;78.62
19096;BME280;9680;52.520;13.332;2022-12-18T03:26:10;103092.94;;;-4.44;78.42
19096;BME280;9680;52.520;13.332;2022-12-18T03:28:45;103097.19;;;-4.44;78.66
19096;BME280;9680;52.520;13.332;2022-12-18T03:31:14;103101.88;;;-4.50;78.46
19096;BME280;9680;52.520;13.332;2022-12-18T03:33:44;103096.31;;;-4.58;78.20
19096;BME280;9680;52.520;13.332;2022-12-18T03:36:14;103095.03;;;-4.65;78.24
19096;BME280;9680;52.520;13.332;2022-12-18T03:38:41;103095.63;;;-4.69;78.37
19096;BME280;9680;52.520;13.332;2022-12-18T03:41:14;103097.72;;;-4.77;78.32
19096;BME280;9680;52.520;13.332;2022-12-18T03:44:27;103092.13;;;-4.85;78.67
19096;BME280;9680;52.520;13.332;2022-12-18T03:47:05;103104.63;;;-4.88;78.42
19096;BME280;9680;52.520;13.332;2022-12-18T03:49:37;103103.00;;;-4.87;78.63
19096;BME280;9680;52.520;13.332;2022-12-18T03:52:09;103104.56;;;-4.89;78.58
19096;BME280;9680;52.520;13.332;2022-12-18T03:54:39;103102.81;;;-4.90;78.57
19096;BME280;9680;52.520;13.332;2022-12-18T03:57:16;103103.00;;;-4.87;79.07
19096;BME280;9680;52.520;13.332;2022-12-18T03:59:47;103104.06;;;-4.84;78.82
19096;BME280;9680;52.520;13.332;2022-12-18T04:02:18;103101.44;;;-4.85;78.78
19096;BME280;9680;52.520;13.332;2022-12-18T04:04:47;103106.59;;;-4.84;78.65
19096;BME280;9680;52.520;13.332;2022-12-18T04:07:17;103104.94;;;-4.83;78.77
19096;BME280;9680;52.520;13.332;2022-12-18T04:09:45;103095.94;;;-4.78;79.01
19096;BME280;9680;52.520;13.332;2022-12-18T04:12:13;103107.09;;;-4.76;78.94
19096;BME280;9680;52.520;13.332;2022-12-18T04:14:40;103101.22;;;-4.75;78.70
19096;BME280;9680;52.520;13.332;2022-12-18T04:17:10;103109.91;;;-4.71;78.78
19096;BME280;9680;52.520;13.332;2022-12-18T04:19:37;103125.28;;;-4.70;78.87
19096;BME280;9680;52.520;13.332;2022-12-18T04:22:03;103126.34;;;-4.66;78.87
19096;BME280;9680;52.520;13.332;2022-12-18T04:24:36;103117.06;;;-4.65;78.83
19096;BME280;9680;52.520;13.332;2022-12-18T04:27:11;103115.50;;;-4.63;78.83
19096;BME280;9680;52.520;13.332;2022-12-18T04:29:42;103120.38;;;-4.66;78.33
19096;BME280;9680;52.520;13.332;2022-12-18T04:32:11;103116.28;;;-4.78;78.42
19096;BME280;9680;52.520;13.332;2022-12-18T04:34:39;103120.47;;;-4.78;78.52
19096;BME280;9680;52.520;13.332;2022-12-18T04:37:06;103121.38;;;-4.78;78.44
19096;BME280;9680;52.520;13.332;2022-12-18T04:39:33;103128.81;;;-4.81;78.62
19096;BME280;9680;52.520;13.332;2022-12-18T04:42:06;103132.41;;;-4.77;78.56
19096;BME280;9680;52.520;13.332;2022-12-18T04:44:33;103133.41;;;-4.75;78.47
19096;BME280;9680;52.520;13.332;2022-12-18T04:47:00;103126.06;;;-4.71;78.56
19096;BME280;9680;52.520;13.332;2022-12-18T04:49:28;103121.97;;;-4.69;78.45
19096;BME280;9680;52.520;13.332;2022-12-18T04:51:55;103116.88;;;-4.69;78.26
19096;BME280;9680;52.520;13.332;2022-12-18T04:54:21;103122.44;;;-4.74;78.03
19096;BME280;9680;52.520;13.332;2022-12-18T04:56:49;103112.06;;;-4.77;78.21
19096;BME280;9680;52.520;13.332;2022-12-18T04:59:16;103123.63;;;-4.83;78.02
19096;BME280;9680;52.520;13.332;2022-12-18T05:01:43;103123.22;;;-4.89;78.15
19096;BME280;9680;52.520;13.332;2022-12-18T05:04:09;103132.34;;;-4.92;78.18
19096;BME280;9680;52.520;13.332;2022-12-18T05:06:38;103144.47;;;-4.88;78.51
19096;BME280;9680;52.520;13.332;2022-12-18T05:09:05;103141.22;;;-4.86;78.28
19096;BME280;9680;52.520;13.332;2022-12-18T05:11:31;103143.75;;;-4.86;78.53
19096;BME280;9680;52.520;13.332;2022-12-18T05:13:58;103151.78;;;-4.79;78.52
19096;BME280;9680;52.520;13.332;2022-12-18T05:16:25;103140.75;;;-4.80;78.16
19096;BME280;9680;52.520;13.332;2022-12-18T05:18:52;103149.94;;;-4.82;78.41
19096;BME280;9680;52.520;13.332;2022-12-18T05:21:18;103153.34;;;-4.82;78.38
19096;BME280;9680;52.520;13.332;2022-12-18T05:23:46;103153.34;;;-4.82;78.13
19096;BME280;9680;52.520;13.332;2022-12-18T05:26:16;103166.66;;;-4.86;78.39
19096;BME280;9680;52.520;13.332;2022-12-18T05:28:43;103169.19;;;-4.86;78.19
19096;BME280;9680;52.520;13.332;2022-12-18T05:31:10;103167.34;;;-4.88;78.12
19096;BME280;9680;52.520;13.332;2022-12-18T05:33:37;103165.69;;;-4.88;78.26
19096;BME280;9680;52.520;13.332;2022-12-18T05:36:06;103169.78;;;-4.90;78.26
19096;BME280;9680;52.520;13.332;2022-12-18T05:38:37;103174.28;;;-4.86;78.40
19096;BME280;9680;52.520;13.332;2022-12-18T05:41:06;103179.47;;;-4.84;78.39
19096;BME280;9680;52.520;13.332;2022-12-18T05:43:34;103173.50;;;-4.85;78.25
19096;BME280;9680;52.520;13.332;2022-12-18T05:46:04;103169.59;;;-4.79;78.68
19096;BME280;9680;52.520;13.332;2022-12-18T05:48:31;103171.28;;;-4.80;78.09
19096;BME280;9680;52.520;13.332;2022-12-18T05:51:03;103178.59;;;-4.85;78.03
19096;BME280;9680;52.520;13.332;2022-12-18T05:53:30;103185.94;;;-4.89;78.02
19096;BME280;9680;52.520;13.332;2022-12-18T05:56:00;103184.66;;;-4.96;78.08
19096;BME280;9680;52.520;13.332;2022-12-18T05:58:34;103184.66;;;-4.96;78.25
19096;BME280;9680;52.520;13.332;2022-12-18T06:01:07;103183.09;;;-4.94;78.44
19096;BME280;9680;52.520;13.332;2022-12-18T06:03:35;103186.53;;;-4.93;78.28
19096;BME280;9680;52.520;13.332;2022-12-18T06:06:02;103191.88;;;-4.89;78.51
19096;BME280;9680;52.520;13.332;2022-12-18T06:08:29;103198.72;;;-4.88;78.48
19096;BME280;9680;52.520;13.332;2022-12-18T06:10:56;103196.72;;;-4.80;78.84
19096;BME280;9680;52.520;13.332;2022-12-18T06:13:22;103196.13;;;-4.76;78.50
19096;BME280;9680;52.520;13.332;2022-12-18T06:15:51;103200.81;;;-4.82;78.24
19096;BME280;9680;52.520;13.332;2022-12-18T06:18:17;103199.06;;;-4.83;78.42
19096;BME280;9680;52.520;13.332;2022-12-18T06:20:44;103199.06;;;-4.83;78.41
19096;BME280;9680;52.520;13.332;2022-12-18T06:23:11;103206.16;;;-4.91;78.37
19096;BME280;9680;52.520;13.332;2022-12-18T06:25:39;103207.06;;;-4.90;78.48
19096;BME280;9680;52.520;13.332;2022-12-18T06:28:06;103199.50;;;-4.89;78.58
19096;BME280;9680;52.520;13.332;2022-12-18T06:30:32;103201.47;;;-4.85;78.59
19096;BME280;9680;52.520;13.332;2022-12-18T06:33:00;103199.84;;;-4.84;78.18
19096;BME280;9680;52.520;13.332;2022-12-18T06:35:27;103213.59;;;-4.80;78.53
19096;BME280;9680;52.520;13.332;2022-12-18T06:37:54;103221.16;;;-4.82;78.54
19096;BME280;9680;52.520;13.332;2022-12-18T06:40:21;103227.22;;;-4.80;78.60
19096;BME280;9680;52.520;13.332;2022-12-18T06:42:48;103237.41;;;-4.80;78.52
19096;BME280;9680;52.520;13.332;2022-12-18T06:45:15;103230.44;;;-4.83;78.37
19096;BME280;9680;52.520;13.332;2022-12-18T06:47:43;103227.59;;;-4.87;78.53
19096;BME280;9680;52.520;13.332;2022-12-18T06:50:14;103233.69;;;-4.85;78.65
19096;BME280;9680;52.520;13.332;2022-12-18T06:52:42;103244.81;;;-4.83;78.38
19096;BME280;9680;52.520;13.332;2022-12-18T06:55:11;103249.22;;;-4.80;78.44
19096;BME280;9680;52.520;13.332;2022-12-18T06:57:38;103257.75;;;-4.80;78.63
19096;BME280;9680;52.520;13.332;2022-12-18T07:00:06;103257.75;;;-4.80;78.60
19096;BME280;9680;52.520;13.332;2022-12-18T07:02:34;103250.69;;;-4.84;78.49
19096;BME280;9680;52.520;13.332;2022-12-18T07:05:00;103250.13;;;-4.80;78.63
19096;BME280;9680;52.520;13.332;2022-12-18T07:07:29;103239.94;;;-4.80;78.57
19096;BME280;9680;52.520;13.332;2022-12-18T07:09:55;103242.28;;;-4.83;78.24
19096;BME280;9680;52.520;13.332;2022-12-18T07:12:22;103237.78;;;-4.87;78.38
19096;BME280;9680;52.520;13.332;2022-12-18T07:14:49;103242.88;;;-4.87;78.55
19096;BME280;9680;52.520;13.332;2022-12-18T07:17:16;103244.50;;;-4.88;78.48
19096;BME280;9680;52.520;13.332;2022-12-18T07:19:43;103248.72;;;-4.88;78.47
19096;BME280;9680;52.520;13.332;2022-12-18T07:22:09;103249.72;;;-4.86;78.70
19096;BME280;9680;52.520;13.332;2022-12-18T07:24:38;103244.44;;;-4.89;78.59
19096;BME280;9680;52.520;13.332;2022-12-18T07:27:04;103247.25;;;-4.85;78.80
19096;BME280;9680;52.520;13.332;2022-12-18T07:29:31;103245.03;;;-4.80;78.82
19096;BME280;9680;52.520;13.332;2022-12-18T07:31:58;103247.97;;;-4.74;78.85
19096;BME280;9680;52.520;13.332;2022-12-18T07:34:25;103254.25;;;-4.69;78.60
19096;BME280;9680;52.520;13.332;2022-12-18T07:36:51;103248.94;;;-4.72;78.44
19096;BME280;9680;52.520;13.332;2022-12-18T07:39:18;103242.31;;;-4.70;78.45
19096;BME280;9680;52.520;13.332;2022-12-18T07:41:46;103247.59;;;-4.66;78.58
19096;BME280;9680;52.520;13.332;2022-12-18T07:44:33;103245.81;;;-4.68;78.48
19096;BME280;9680;52.520;13.332;2022-12-18T07:47:00;103253.47;;;-4.68;78.39
19096;BME280;9680;52.520;13.332;2022-12-18T07:49:27;103251.13;;;-4.64;78.66
19096;BME280;9680;52.520;13.332;2022-12-18T07:51:54;103243.09;;;-4.71;78.38
19096;BME280;9680;52.520;13.332;2022-12-18T07:54:21;103244.66;;;-4.73;78.44
19096;BME280;9680;52.520;13.332;2022-12-18T07:56:49;103246.50;;;-4.70;78.64
19096;BME280;9680;52.520;13.332;2022-12-18T07:59:16;103249.34;;;-4.65;78.86
19096;BME280;9680;52.520;13.332;2022-12-18T08:01:43;103251.22;;;-4.63;78.72
19096;BME280;9680;52.520;13.332;2022-12-18T08:04:10;103248.88;;;-4.60;78.86
19096;BME280;9680;52.520;13.332;2022-12-18T08:06:37;103255.53;;;-4.48;78.81
19096;BME280;9680;52.520;13.332;2022-12-18T08:09:04;103256.59;;;-4.45;78.50
19096;BME280;9680;52.520;13.332;2022-12-18T08:11:31;103259.34;;;-4.42;78.57
19096;BME280;9680;52.520;13.332;2022-12-18T08:13:59;103255.44;;;-4.36;78.84
19096;BME280;9680;52.520;13.332;2022-12-18T08:16:26;103256.41;;;-4.34;78.44
19096;BME280;9680;52.520;13.332;2022-12-18T08:18:54;103252.03;;;-4.37;78.37
19096;BME280;9680;52.520;13.332;2022-12-18T08:21:23;103265.03;;;-4.32;78.35
19096;BME280;9680;52.520;13.332;2022-12-18T08:23:51;103264.25;;;-4.31;78.29
19096;BME280;9680;52.520;13.332;2022-12-18T08:26:18;103264.03;;;-4.34;78.33
19096;BME280;9680;52.520;13.332;2022-12-18T08:28:49;103260.16;;;-4.29;78.52
19096;BME280;9680;52.520;13.332;2022-12-18T08:31:21;103262.97;;;-4.25;78.45
19096;BME280;9680;52.520;13.332;2022-12-18T08:33:49;103258.78;;;-4.24;78.31
19096;BME280;9680;52.520;13.332;2022-12-18T08:36:16;103278.19;;;-4.26;78.29
19096;BME280;9680;52.520;13.332;2022-12-18T08:38:43;103282.69;;;-4.22;78.10
19096;BME280;9680;52.520;13.332;2022-12-18T08:41:12;103280.41;;;-4.17;78.56
19096;BME280;9680;52.520;13.332;2022-12-18T08:43:39;103278.66;;;-4.18;78.18
19096;BME280;9680;52.520;13.332;2022-12-18T08:46:26;103288.16;;;-4.16;78.51
19096;BME280;9680;52.520;13.332;2022-12-18T08:48:54;103275.91;;;-4.08;78.53
19096;BME280;9680;52.520;13.332;2022-12-18T08:51:21;103280.81;;;-3.98;78.20
19096;BME280;9680;52.520;13.332;2022-12-18T08:53:48;103288.13;;;-3.89;78.19
19096;BME280;9680;52.520;13.332;2022-12-18T08:56:15;103298.25;;;-3.90;77.56
19096;BME280;9680;52.520;13.332;2022-12-18T08:58:42;103298.13;;;-3.92;77.72
19096;BME280;9680;52.520;13.332;2022-12-18T09:01:11;103296.56;;;-3.90;77.61
19096;BME280;9680;52.520;13.332;2022-12-18T09:03:42;103299.41;;;-3.85;77.49
19096;BME280;9680;52.520;13.332;2022-12-18T09:06:18;103296.94;;;-3.84;77.33
19096;BME280;9680;52.520;13.332;2022-12-18T09:08:45;103308.50;;;-3.75;77.59
19096;BME280;9680;52.520;13.332;2022-12-18T09:11:22;103312.41;;;-3.67;77.32
19096;BME280;9680;52.520;13.332;2022-12-18T09:13:50;103310.94;;;-3.63;76.90
19096;BME280;9680;52.520;13.332;2022-12-18T09:16:18;103313.59;;;-3.62;76.91
19096;BME280;9680;52.520;13.332;2022-12-18T09:18:46;103312.88;;;-3.59;76.74
19096;BME280;9680;52.520;13.332;2022-12-18T09:21:18;103310.81;;;-3.52;76.98
19096;BME280;9680;52.520;13.332;2022-12-18T09:23:49;103305.53;;;-3.55;76.52
19096;BME280;9680;52.520;13.332;2022-12-18T09:26:16;103307.50;;;-3.51;76.43
19096;BME280;9680;52.520;13.332;2022-12-18T09:28:43;103302.47;;;-3.49;76.53
19096;BME280;9680;52.520;13.332;2022-12-18T09:31:11;103305.91;;;-3.48;76.13
19096;BME280;9680;52.520;13.332;2022-12-18T09:33:39;103306.69;;;-3.49;76.04
19096;BME280;9680;52.520;13.332;2022-12-18T09:36:09;103314.44;;;-3.48;76.17
19096;BME280;9680;52.520;13.332;2022-12-18T09:38:37;103302.75;;;-3.44;76.03
19096;BME280;9680;52.520;13.332;2022-12-18T09:41:13;103301.00;;;-3.45;75.97
19096;BME280;9680;52.520;13.332;2022-12-18T09:43:46;103298.25;;;-3.48;75.98
19096;BME280;9680;52.520;13.332;2022-12-18T09:46:20;103298.81;;;-3.39;76.19
19096;BME280;9680;52.520;13.332;2022-12-18T09:48:52;103301.44;;;-3.38;75.84
19096;BME280;9680;52.520;13.332;2022-12-18T09:51:26;103298.63;;;-3.42;75.34
19096;BME280;9680;52.520;13.332;2022-12-18T09:53:58;103284.03;;;-3.45;75.84
19096;BME280;9680;52.520;13.332;2022-12-18T09:56:28;103277.47;;;-3.41;75.88
19096;BME280;9680;52.520;13.332;2022-12-18T09:58:59;103275.88;;;-3.39;75.96
19096;BME280;9680;52.520;13.332;2022-12-18T10:01:27;103262.09;;;-3.28;76.12
19096;BME280;9680;52.520;13.332;2022-12-18T10:03:55;103250.06;;;-3.15;76.28
19096;BME280;9680;52.520;13.332;2022-12-18T10:06:42;103242.78;;;-3.09;75.83
19096;BME280;9680;52.520;13.332;2022-12-18T10:09:16;103245.81;;;-3.01;75.89
19096;BME280;9680;52.520;13.332;2022-12-18T10:11:52;103239.22;;;-2.98;75.82
19096;BME280;9680;52.520;13.332;2022-12-18T10:14:25;103239.56;;;-2.91;75.95
19096;BME280;9680;52.520;13.332;2022-12-18T10:17:02;103250.13;;;-2.85;75.89
19096;BME280;9680;52.520;13.332;2022-12-18T10:19:39;103242.66;;;-2.82;75.75
19096;BME280;9680;52.520;13.332;2022-12-18T10:22:23;103247.94;;;-2.79;75.68
19096;BME280;9680;52.520;13.332;2022-12-18T10:25:01;103249.06;;;-2.74;75.63
19096;BME280;9680;52.520;13.332;2022-12-18T10:27:30;103248.63;;;-2.67;75.72
19096;BME280;9680;52.520;13.332;2022-12-18T10:29:58;103251.81;;;-2.71;75.17
19096;BME280;9680;52.520;13.332;2022-12-18T10:32:28;103245.56;;;-2.76;75.33
19096;BME280;9680;52.520;13.332;2022-12-18T10:34:57;103244.25;;;-2.84;75.58
19096;BME280;9680;52.520;13.332;2022-12-18T10:37:27;103231.47;;;-2.84;75.92
19096;BME280;9680;52.520;13.332;2022-12-18T10:40:09;103231.84;;;-2.78;76.04
19096;BME280;9680;52.520;13.332;2022-12-18T10:42:37;103232.97;;;-2.73;76.18
19096;BME280;9680;52.520;13.332;2022-12-18T10:45:13;103233.94;;;-2.71;76.14
19096;BME280;9680;52.520;13.332;2022-12-18T10:47:44;103228.03;;;-2.70;76.18
19096;BME280;9680;52.520;13.332;2022-12-18T10:50:20;103220.22;;;-2.73;76.16
19096;BME280;9680;52.520;13.332;2022-12-18T10:52:57;103213.75;;;-2.66;76.46
19096;BME280;9680;52.520;13.332;2022-12-18T10:55:30;103207.34;;;-2.59;76.47
19096;BME280;9680;52.520;13.332;2022-12-18T10:58:13;103200.75;;;-2.56;76.23
19096;BME280;9680;52.520;13.332;2022-12-18T11:00:42;103197.25;;;-2.58;76.19
19096;BME280;9680;52.520;13.332;2022-12-18T11:03:30;103197.03;;;-2.46;76.79
19096;BME280;9680;52.520;13.332;2022-12-18T11:06:08;103190.03;;;-2.34;76.33
19096;BME280;9680;52.520;13.332;2022-12-18T11:08:37;103194.59;;;-2.28;75.78
19096;BME280;9680;52.520;13.332;2022-12-18T11:11:09;103194.34;;;-2.32;75.88
19096;BME280;9680;52.520;13.332;2022-12-18T11:13:54;103203.78;;;-2.31;75.89
19096;BME280;9680;52.520;13.332;2022-12-18T11:16:24;103210.56;;;-2.32;75.66
19096;BME280;9680;52.520;13.332;2022-12-18T11:18:51;103197.97;;;-2.29;75.73
19096;BME280;9680;52.520;13.332;2022-12-18T11:21:18;103201.75;;;-2.22;76.02
19096;BME280;9680;52.520;13.332;2022-12-18T11:23:50;103197.75;;;-2.17;76.04
19096;BME280;9680;52.520;13.332;2022-12-18T11:26:20;103205.31;;;-2.18;75.80
19096;BME280;9680;52.520;13.332;2022-12-18T11:28:50;103200.03;;;-2.22;75.88
19096;BME280;9680;52.520;13.332;2022-12-18T11:34:50;103195.03;;;-2.20;75.94
19096;BME280;9680;52.520;13.332;2022-12-18T11:37:20;103190.78;;;-2.20;75.83
19096;BME280;9680;52.520;13.332;2022-12-18T11:39:51;103192.16;;;-2.26;75.73
19096;BME280;9680;52.520;13.332;2022-12-18T11:42:24;103201.03;;;-2.35;75.53
19096;BME280;9680;52.520;13.332;2022-12-18T11:44:55;103202.63;;;-2.37;76.13
19096;BME280;9680;52.520;13.332;2022-12-18T11:47:28;103212.16;;;-2.34;76.28
19096;BME280;9680;52.520;13.332;2022-12-18T11:50:00;103222.25;;;-2.36;76.21
19096;BME280;9680;52.520;13.332;2022-12-18T11:52:33;103218.06;;;-2.35;76.48
19096;BME280;9680;52.520;13.332;2022-12-18T11:55:11;103226.84;;;-2.30;76.55
19096;BME280;9680;52.520;13.332;2022-12-18T11:57:47;103231.25;;;-2.27;76.26
19096;BME280;9680;52.520;13.332;2022-12-18T12:00:19;103237.06;;;-2.30;76.17
19096;BME280;9680;52.520;13.332;2022-12-18T12:03:06;103238.75;;;-2.30;76.42
19096;BME280;9680;52.520;13.332;2022-12-18T12:06:19;103236.88;;;-2.33;76.42
19096;BME280;9680;52.520;13.332;2022-12-18T12:13:25;103232.22;;;-2.25;76.52
19096;BME280;9680;52.520;13.332;2022-12-18T12:16:04;103235.19;;;-2.17;76.70
19096;BME280;9680;52.520;13.332;2022-12-18T12:18:41;103244.53;;;-2.18;76.23
19096;BME280;9680;52.520;13.332;2022-12-18T12:21:14;103235.09;;;-2.19;76.49
19096;BME280;9680;52.520;13.332;2022-12-18T12:23:49;103236.13;;;-2.15;76.38
19096;BME280;9680;52.520;13.332;2022-12-18T12:26:24;103240.38;;;-2.16;76.47
19096;BME280;9680;52.520;13.332;2022-12-18T12:29:10;103245.50;;;-2.16;76.45
19096;BME280;9680;52.520;13.332;2022-12-18T12:32:10;103253.16;;;-2.16;76.50
19096;BME280;9680;52.520;13.332;2022-12-18T12:34:58;103253.22;;;-2.14;76.27
19096;BME280;9680;52.520;13.332;2022-12-18T12:48:55;103238.91;;;-2.27;76.49
19096;BME280;9680;52.520;13.332;2022-12-18T12:51:25;103230.19;;;-2.31;76.39
19096;BME280;9680;52.520;13.332;2022-12-18T12:53:54;103220.16;;;-2.28;76.50
19096;BME280;9680;52.520;13.332;2022-12-18T12:56:38;103207.53;;;-2.25;76.61
19096;BME280;9680;52.520;13.332;2022-12-18T12:59:13;103195.75;;;-2.23;76.60
19096;BME280;9680;52.520;13.332;2022-12-18T13:01:52;103203.78;;;-2.31;76.25
19096;BME280;9680;52.520;13.332;2022-12-18T13:04:27;103192.84;;;-2.29;76.65
19096;BME280;9680;52.520;13.332;2022-12-18T13:07:03;103192.69;;;-2.32;76.38
19096;BME280;9680;52.520;13.332;2022-12-18T13:09:33;103194.19;;;-2.36;76.47
19096;BME280;9680;52.520;13.332;2022-12-18T13:12:02;103184.13;;;-2.32;76.78
19096;BME280;9680;52.520;13.332;2022-12-18T13:14:49;103198.75;;;-2.30;76.76
19096;BME280;9680;52.520;13.332;2022-12-18T13:17:31;103201.13;;;-2.33;76.75
19096;BME280;9680;52.520;13.332;2022-12-18T13:20:11;103201.84;;;-2.36;76.84
19096;BME280;9680;52.520;13.332;2022-12-18T13:22:41;103200.06;;;-2.37;76.88
19096;BME280;9680;52.520;13.332;2022-12-18T13:25:33;103201.13;;;-2.33;77.07
19096;BME280;9680;52.520;13.332;2022-12-18T13:28:03;103204.81;;;-2.28;77.01
19096;BME280;9680;52.520;13.332;2022-12-18T13:30:52;103192.16;;;-2.26;76.98